»·PEaware :: N172AP 1L1-2O7

N172AP :: 1L1-2O7

FLIGHT INFORMATION

Flight Status: Arrived
Operator: Privately registered:
United States
More flights under this callsign
Pilot: Angelo P. (28877)
Aircraft: CESSNA 172 SKYHAWK
(C172)
More flights by this aircraft type
Origin: 1L1 Lincoln Co
United States
Destination: 2O7 Independence
United States
More flights between these airports :: More routes between these airports
Route: LLOAF TPH V135 TEZUM T274 LIDAT 363129N1174554W 362814N1175210W
File this flight plan on PilotEdge
Remarks:
Altitude:
(Current/Filed)
10,500ft
Speed:
(Current/Filed)
110kts
Departed: 08-Oct-20 07:09 AM
Arrived: 08-Oct-20 09:30 AM
Distance/Time
Traveled:
190nm/2:21
Distance/Time
To Go:
Arrived

Flight Plot

Page will automatically refresh every two minutes.

Flight plan parsing failed; only flown route is shown


Map Options




Map Legend


Flown Route
Filed Route
Departure Airport
Arrival Airport
Navaid (VOR, NDB)
Fix

Horizontal Profiles

Position Reports

Time Latitude Longitude Heading Altitude Ground
Speed
08-Oct-20 07:01 37.787503 -114.421248 270 4817ft 5kts
08-Oct-20 07:02 37.787707 -114.421419 3 4818ft 0kts
08-Oct-20 07:03 37.787707 -114.421419 3 4818ft 0kts
08-Oct-20 07:05 37.787707 -114.421419 3 4818ft 0kts
08-Oct-20 07:06 37.788608 -114.421355 1 4820ft 12kts
08-Oct-20 07:07 37.792863 -114.421167 4 4834ft 12kts
08-Oct-20 07:08 37.793816 -114.420983 83 4838ft 4kts
08-Oct-20 07:09 37.786529 -114.421081 185 4968ft 70kts
08-Oct-20 07:10 37.770013 -114.429490 215 5729ft 68kts
08-Oct-20 07:11 37.777737 -114.454937 309 6266ft 101kts
08-Oct-20 07:12 37.793029 -114.486729 287 6785ft 109kts
08-Oct-20 07:13 37.801228 -114.521106 278 7481ft 97kts
08-Oct-20 07:14 37.806607 -114.552769 274 8177ft 87kts
08-Oct-20 07:15 37.810832 -114.580562 272 8861ft 72kts
08-Oct-20 07:16 37.814274 -114.604457 271 9295ft 75kts
08-Oct-20 07:17 37.818290 -114.633679 272 9683ft 90kts
08-Oct-20 07:18 37.822825 -114.666102 272 10099ft 95kts
08-Oct-20 07:19 37.827477 -114.699453 272 10509ft 97kts
08-Oct-20 07:20 37.832103 -114.732961 272 10689ft 107kts
08-Oct-20 07:20 37.836634 -114.765575 273 10685ft 115kts
08-Oct-20 07:22 37.843102 -114.812280 273 10685ft 115kts
08-Oct-20 07:22 37.847638 -114.845726 273 10685ft 116kts
08-Oct-20 07:24 37.854104 -114.892719 273 10687ft 116kts
08-Oct-20 07:24 37.858708 -114.926306 273 10688ft 116kts
08-Oct-20 07:25 37.864175 -114.966749 274 10691ft 115kts
08-Oct-20 07:26 37.869513 -115.006191 274 10675ft 114kts
08-Oct-20 07:27 37.874905 -115.046004 274 10656ft 114kts
08-Oct-20 07:28 37.880284 -115.085948 274 10636ft 115kts
08-Oct-20 07:29 37.885648 -115.125876 275 10613ft 115kts
08-Oct-20 07:30 37.891028 -115.166030 275 10587ft 115kts
08-Oct-20 07:31 37.896381 -115.206103 275 10561ft 115kts
08-Oct-20 07:32 37.901743 -115.246186 275 10560ft 114kts
08-Oct-20 07:33 37.907029 -115.285962 275 10560ft 114kts
08-Oct-20 07:34 37.912306 -115.325796 275 10560ft 114kts
08-Oct-20 07:35 37.917599 -115.365682 275 10560ft 114kts
08-Oct-20 07:36 37.922845 -115.405509 275 10563ft 114kts
08-Oct-20 07:37 37.928074 -115.445293 275 10569ft 114kts
08-Oct-20 07:38 37.933279 -115.485040 275 10575ft 114kts
08-Oct-20 07:39 37.938483 -115.524863 275 10580ft 114kts
08-Oct-20 07:40 37.943685 -115.564691 275 10585ft 114kts
08-Oct-20 07:41 37.948863 -115.604478 275 10589ft 114kts
08-Oct-20 07:42 37.954154 -115.645012 275 10353ft 113kts
08-Oct-20 07:43 37.959064 -115.682953 275 10356ft 106kts
08-Oct-20 07:44 37.963802 -115.719605 274 10385ft 104kts
08-Oct-20 07:45 37.968483 -115.756068 274 10405ft 104kts
08-Oct-20 07:46 37.973117 -115.792186 274 10444ft 106kts
08-Oct-20 07:47 37.978075 -115.831056 274 10460ft 113kts
08-Oct-20 07:48 37.982523 -115.870850 271 10476ft 113kts
08-Oct-20 07:49 37.986321 -115.910231 273 10491ft 112kts
08-Oct-20 07:50 37.990948 -115.949311 274 10497ft 112kts
08-Oct-20 07:51 37.995810 -115.988417 274 10497ft 112kts
08-Oct-20 07:52 38.000732 -116.027545 274 10496ft 112kts
08-Oct-20 07:53 38.005667 -116.066752 274 10496ft 112kts
08-Oct-20 07:54 38.010579 -116.105856 274 10496ft 112kts
08-Oct-20 07:55 38.015496 -116.145056 274 10496ft 112kts
08-Oct-20 07:56 38.020392 -116.184264 274 10496ft 112kts
08-Oct-20 07:57 38.025275 -116.223443 274 10496ft 112kts
08-Oct-20 07:58 38.030140 -116.262588 274 10496ft 112kts
08-Oct-20 07:59 38.034991 -116.301700 274 10496ft 112kts
08-Oct-20 08:00 38.039823 -116.340833 274 10496ft 112kts
08-Oct-20 08:01 38.044658 -116.380067 274 10496ft 112kts
08-Oct-20 08:02 38.049472 -116.419237 274 10496ft 112kts
08-Oct-20 08:03 38.054279 -116.458455 274 10496ft 112kts
08-Oct-20 08:04 38.059059 -116.497590 274 10496ft 112kts
08-Oct-20 08:05 38.063833 -116.536768 274 10496ft 112kts
08-Oct-20 08:06 38.068587 -116.575891 274 10495ft 112kts
08-Oct-20 08:07 38.073327 -116.615010 274 10495ft 112kts
08-Oct-20 08:08 38.078068 -116.654248 273 10497ft 112kts
08-Oct-20 08:09 38.082435 -116.693528 265 10496ft 111kts
08-Oct-20 08:10 38.077450 -116.731969 256 10497ft 110kts
08-Oct-20 08:11 38.071702 -116.770243 255 10497ft 110kts
08-Oct-20 08:12 38.065853 -116.808375 255 10497ft 110kts
08-Oct-20 08:13 38.059943 -116.846633 255 10497ft 110kts
08-Oct-20 08:14 38.054039 -116.884726 255 10497ft 110kts
08-Oct-20 08:15 38.048075 -116.923095 254 10489ft 113kts
08-Oct-20 08:16 38.041528 -116.964923 255 10497ft 125kts
08-Oct-20 08:17 38.034721 -117.008540 256 10496ft 126kts
08-Oct-20 08:18 38.018513 -117.045953 222 10496ft 123kts
08-Oct-20 08:19 37.994083 -117.076345 221 10496ft 123kts
08-Oct-20 08:20 37.969057 -117.105973 221 10496ft 123kts
08-Oct-20 08:21 37.944392 -117.134993 221 10575ft 121kts
08-Oct-20 08:22 37.919644 -117.164091 221 10575ft 120kts
08-Oct-20 08:23 37.895066 -117.192883 221 10576ft 120kts
08-Oct-20 08:24 37.870472 -117.221723 221 10576ft 120kts
08-Oct-20 08:25 37.845978 -117.250452 221 10576ft 120kts
08-Oct-20 08:26 37.821502 -117.279141 221 10576ft 120kts
08-Oct-20 08:27 37.796891 -117.307952 221 10576ft 120kts
08-Oct-20 08:28 37.772335 -117.336664 221 10576ft 120kts
08-Oct-20 08:29 37.747750 -117.365243 221 10576ft 120kts
08-Oct-20 08:30 37.723150 -117.393814 221 10576ft 120kts
08-Oct-20 08:31 37.698539 -117.422483 221 10576ft 120kts
08-Oct-20 08:32 37.673952 -117.451126 221 10576ft 120kts
08-Oct-20 08:33 37.645472 -117.457297 151 10576ft 116kts
08-Oct-20 08:34 37.617661 -117.436813 146 10576ft 116kts
08-Oct-20 08:35 37.590661 -117.414617 145 10575ft 116kts
08-Oct-20 08:36 37.563812 -117.391937 144 10574ft 116kts
08-Oct-20 08:37 37.536567 -117.368760 144 10477ft 120kts
08-Oct-20 08:38 37.509426 -117.345651 144 10475ft 116kts
08-Oct-20 08:39 37.482696 -117.322901 144 10476ft 116kts
08-Oct-20 08:40 37.455928 -117.300139 144 10476ft 116kts
08-Oct-20 08:41 37.427490 -117.284258 191 10475ft 118kts
08-Oct-20 08:42 37.396245 -117.297940 199 10476ft 119kts
08-Oct-20 08:43 37.365619 -117.313865 201 10476ft 119kts
08-Oct-20 08:44 37.335114 -117.330289 202 10485ft 119kts
08-Oct-20 08:45 37.304645 -117.346838 202 10485ft 119kts
08-Oct-20 08:46 37.274145 -117.363424 202 10484ft 119kts
08-Oct-20 08:47 37.243573 -117.380050 202 10479ft 119kts
08-Oct-20 08:48 37.212988 -117.396665 202 10474ft 120kts
08-Oct-20 08:49 37.182461 -117.413224 202 10469ft 120kts
08-Oct-20 08:50 37.151663 -117.429353 201 10464ft 120kts
08-Oct-20 08:51 37.120995 -117.445778 202 10459ft 120kts
08-Oct-20 08:52 37.090396 -117.462291 202 10448ft 120kts
08-Oct-20 08:53 37.059756 -117.478788 202 10436ft 120kts
08-Oct-20 08:54 37.029008 -117.495325 202 10427ft 120kts
08-Oct-20 08:55 36.998431 -117.511813 202 10419ft 120kts
08-Oct-20 08:56 36.967727 -117.528369 202 10413ft 120kts
08-Oct-20 08:57 36.937132 -117.544853 202 10412ft 119kts
08-Oct-20 08:59 36.906614 -117.561279 202 10412ft 119kts
08-Oct-20 09:00 36.875983 -117.577753 202 10412ft 119kts
08-Oct-20 09:01 36.845423 -117.594172 202 10412ft 119kts
08-Oct-20 09:02 36.814919 -117.610550 202 10412ft 119kts
08-Oct-20 09:03 36.784344 -117.626950 202 10406ft 120kts
08-Oct-20 09:04 36.753586 -117.643431 202 10392ft 120kts
08-Oct-20 09:05 36.722858 -117.659895 202 10380ft 120kts
08-Oct-20 09:06 36.692263 -117.676264 202 10370ft 119kts
08-Oct-20 09:07 36.661739 -117.692579 202 10363ft 119kts
08-Oct-20 09:08 36.631215 -117.708882 202 10359ft 119kts
08-Oct-20 09:09 36.600151 -117.723534 192 10356ft 119kts
08-Oct-20 09:10 36.568322 -117.734772 196 10349ft 119kts
08-Oct-20 09:11 36.536669 -117.747329 196 10341ft 119kts
08-Oct-20 09:12 36.516511 -117.778562 240 10336ft 119kts
08-Oct-20 09:13 36.499456 -117.814243 237 10331ft 120kts
08-Oct-20 09:14 36.481658 -117.849260 237 10322ft 120kts
08-Oct-20 09:15 36.489629 -117.883449 317 10323ft 118kts
08-Oct-20 09:16 36.514909 -117.910168 321 10087ft 117kts
08-Oct-20 09:17 36.539834 -117.934735 322 9467ft 113kts
08-Oct-20 09:17 36.560336 -117.954644 322 8881ft 111kts
08-Oct-20 09:19 36.585067 -117.986866 307 8066ft 115kts
08-Oct-20 09:19 36.601213 -118.014471 307 7485ft 119kts
08-Oct-20 09:21 36.626051 -118.051299 315 6668ft 118kts
08-Oct-20 09:21 36.645338 -118.075353 318 6082ft 117kts
08-Oct-20 09:23 36.673276 -118.106553 319 5270ft 115kts
08-Oct-20 09:23 36.693237 -118.128632 319 4712ft 111kts
08-Oct-20 09:24 36.714638 -118.150489 323 4746ft 93kts
08-Oct-20 09:25 36.736393 -118.166809 336 4747ft 90kts
08-Oct-20 09:26 36.759888 -118.175697 349 4699ft 88kts
08-Oct-20 09:27 36.782306 -118.183282 338 4620ft 71kts
08-Oct-20 09:28 36.798205 -118.195555 342 4509ft 65kts
08-Oct-20 09:29 36.814332 -118.203859 319 3898ft 35kts
08-Oct-20 09:30 36.819888 -118.206793 337 3895ft 16kts
08-Oct-20 09:31 36.814368 -118.203941 155 3899ft 36kts
08-Oct-20 09:32 36.810174 -118.202779 258 3903ft 5kts
08-Oct-20 09:33 36.810102 -118.203044 245 3904ft 0kts
08-Oct-20 09:34 36.810102 -118.203044 245 3904ft 0kts

Navigation Log

Ident Type
Flight plan parsing failed, navigation log unavailable